sensor_id;sensor_type;location;lat;lon;timestamp;P1;durP1;ratioP1;P2;durP2;ratioP2
19161;SDS011;9713;48.140;11.530;2022-08-05T00:03:16;4.30;;;3.90;;
19161;SDS011;9713;48.140;11.530;2022-08-05T00:06:59;4.30;;;3.90;;
19161;SDS011;9713;48.140;11.530;2022-08-05T00:11:02;5.95;;;4.10;;
19161;SDS011;9713;48.140;11.530;2022-08-05T00:15:11;4.28;;;3.88;;
19161;SDS011;9713;48.140;11.530;2022-08-05T00:19:13;4.78;;;3.75;;
19161;SDS011;9713;48.140;11.530;2022-08-05T00:23:01;5.15;;;4.30;;
19161;SDS011;9713;48.140;11.530;2022-08-05T00:26:53;4.30;;;3.90;;
19161;SDS011;9713;48.140;11.530;2022-08-05T00:30:37;4.90;;;4.40;;
19161;SDS011;9713;48.140;11.530;2022-08-05T00:34:24;4.65;;;4.15;;
19161;SDS011;9713;48.140;11.530;2022-08-05T00:38:26;4.70;;;4.20;;
19161;SDS011;9713;48.140;11.530;2022-08-05T00:42:14;5.82;;;3.88;;
19161;SDS011;9713;48.140;11.530;2022-08-05T00:46:14;6.55;;;4.00;;
19161;SDS011;9713;48.140;11.530;2022-08-05T00:49:56;5.35;;;4.45;;
19161;SDS011;9713;48.140;11.530;2022-08-05T00:53:40;4.82;;;4.40;;
19161;SDS011;9713;48.140;11.530;2022-08-05T00:57:42;7.35;;;4.88;;
19161;SDS011;9713;48.140;11.530;2022-08-05T01:01:40;8.45;;;4.55;;
19161;SDS011;9713;48.140;11.530;2022-08-05T01:05:29;7.25;;;4.55;;
19161;SDS011;9713;48.140;11.530;2022-08-05T01:09:14;4.70;;;4.20;;
19161;SDS011;9713;48.140;11.530;2022-08-05T01:13:03;6.28;;;4.65;;
19161;SDS011;9713;48.140;11.530;2022-08-05T01:17:02;4.82;;;4.30;;
19161;SDS011;9713;48.140;11.530;2022-08-05T01:20:49;4.95;;;4.30;;
19161;SDS011;9713;48.140;11.530;2022-08-05T01:24:40;7.28;;;4.78;;
19161;SDS011;9713;48.140;11.530;2022-08-05T01:28:32;6.43;;;4.30;;
19161;SDS011;9713;48.140;11.530;2022-08-05T01:32:20;7.50;;;4.78;;
19161;SDS011;9713;48.140;11.530;2022-08-05T01:36:08;5.30;;;4.57;;
19161;SDS011;9713;48.140;11.530;2022-08-05T01:39:56;5.78;;;4.85;;
19161;SDS011;9713;48.140;11.530;2022-08-05T01:43:41;5.85;;;5.13;;
19161;SDS011;9713;48.140;11.530;2022-08-05T01:47:29;5.40;;;4.30;;
19161;SDS011;9713;48.140;11.530;2022-08-05T01:51:20;5.85;;;5.25;;
19161;SDS011;9713;48.140;11.530;2022-08-05T01:55:04;8.02;;;4.97;;
19161;SDS011;9713;48.140;11.530;2022-08-05T01:58:51;6.60;;;5.20;;
19161;SDS011;9713;48.140;11.530;2022-08-05T02:02:35;8.60;;;4.97;;
19161;SDS011;9713;48.140;11.530;2022-08-05T02:06:34;7.00;;;5.28;;
19161;SDS011;9713;48.140;11.530;2022-08-05T02:10:19;7.63;;;5.13;;
19161;SDS011;9713;48.140;11.530;2022-08-05T02:14:12;5.32;;;4.80;;
19161;SDS011;9713;48.140;11.530;2022-08-05T02:17:57;5.78;;;4.97;;
19161;SDS011;9713;48.140;11.530;2022-08-05T02:22:08;7.13;;;5.18;;
19161;SDS011;9713;48.140;11.530;2022-08-05T02:26:08;5.72;;;4.72;;
19161;SDS011;9713;48.140;11.530;2022-08-05T02:29:53;5.68;;;4.57;;
19161;SDS011;9713;48.140;11.530;2022-08-05T02:33:42;8.15;;;5.10;;
19161;SDS011;9713;48.140;11.530;2022-08-05T02:37:29;7.75;;;5.25;;
19161;SDS011;9713;48.140;11.530;2022-08-05T02:41:13;6.30;;;5.10;;
19161;SDS011;9713;48.140;11.530;2022-08-05T02:44:59;6.00;;;5.10;;
19161;SDS011;9713;48.140;11.530;2022-08-05T02:48:43;5.30;;;4.63;;
19161;SDS011;9713;48.140;11.530;2022-08-05T02:52:32;5.47;;;4.97;;
19161;SDS011;9713;48.140;11.530;2022-08-05T02:56:15;5.97;;;5.10;;
19161;SDS011;9713;48.140;11.530;2022-08-05T03:00:00;5.63;;;5.10;;
19161;SDS011;9713;48.140;11.530;2022-08-05T03:03:43;5.68;;;4.70;;
19161;SDS011;9713;48.140;11.530;2022-08-05T03:07:43;6.53;;;4.93;;
19161;SDS011;9713;48.140;11.530;2022-08-05T03:15:51;6.85;;;4.63;;
19161;SDS011;9713;48.140;11.530;2022-08-05T03:19:36;6.05;;;5.32;;
19161;SDS011;9713;48.140;11.530;2022-08-05T03:23:22;5.57;;;5.07;;
19161;SDS011;9713;48.140;11.530;2022-08-05T03:27:05;5.57;;;5.00;;
19161;SDS011;9713;48.140;11.530;2022-08-05T03:30:47;5.20;;;4.70;;
19161;SDS011;9713;48.140;11.530;2022-08-05T03:34:32;5.05;;;4.55;;
19161;SDS011;9713;48.140;11.530;2022-08-05T03:38:15;5.75;;;4.53;;
19161;SDS011;9713;48.140;11.530;2022-08-05T03:42:13;8.55;;;4.90;;
19161;SDS011;9713;48.140;11.530;2022-08-05T03:45:56;7.22;;;4.85;;
19161;SDS011;9713;48.140;11.530;2022-08-05T03:49:41;6.10;;;4.70;;
19161;SDS011;9713;48.140;11.530;2022-08-05T03:53:33;5.55;;;4.30;;
19161;SDS011;9713;48.140;11.530;2022-08-05T03:57:38;4.75;;;4.00;;
19161;SDS011;9713;48.140;11.530;2022-08-05T04:01:24;4.80;;;4.30;;
19161;SDS011;9713;48.140;11.530;2022-08-05T04:05:13;5.03;;;4.45;;
19161;SDS011;9713;48.140;11.530;2022-08-05T04:08:57;5.38;;;4.22;;
19161;SDS011;9713;48.140;11.530;2022-08-05T04:12:40;6.88;;;4.78;;
19161;SDS011;9713;48.140;11.530;2022-08-05T04:16:22;4.72;;;4.13;;
19161;SDS011;9713;48.140;11.530;2022-08-05T04:20:17;5.95;;;4.38;;
19161;SDS011;9713;48.140;11.530;2022-08-05T04:24:03;6.88;;;4.22;;
19161;SDS011;9713;48.140;11.530;2022-08-05T04:27:49;6.70;;;4.22;;
19161;SDS011;9713;48.140;11.530;2022-08-05T04:31:38;5.70;;;4.68;;
19161;SDS011;9713;48.140;11.530;2022-08-05T04:35:24;5.07;;;4.25;;
19161;SDS011;9713;48.140;11.530;2022-08-05T04:39:27;6.72;;;4.10;;
19161;SDS011;9713;48.140;11.530;2022-08-05T04:43:15;4.70;;;4.20;;
19161;SDS011;9713;48.140;11.530;2022-08-05T04:47:02;4.40;;;3.90;;
19161;SDS011;9713;48.140;11.530;2022-08-05T04:50:51;8.05;;;5.10;;
19161;SDS011;9713;48.140;11.530;2022-08-05T04:54:50;4.82;;;4.38;;
19161;SDS011;9713;48.140;11.530;2022-08-05T04:58:33;5.47;;;3.90;;
19161;SDS011;9713;48.140;11.530;2022-08-05T05:02:16;5.82;;;3.80;;
19161;SDS011;9713;48.140;11.530;2022-08-05T05:06:19;4.65;;;4.25;;
19161;SDS011;9713;48.140;11.530;2022-08-05T05:10:22;6.18;;;4.30;;
19161;SDS011;9713;48.140;11.530;2022-08-05T05:14:09;6.65;;;4.00;;
19161;SDS011;9713;48.140;11.530;2022-08-05T05:17:56;7.80;;;3.97;;
19161;SDS011;9713;48.140;11.530;2022-08-05T05:21:40;4.90;;;3.97;;
19161;SDS011;9713;48.140;11.530;2022-08-05T05:25:26;4.18;;;3.78;;
19161;SDS011;9713;48.140;11.530;2022-08-05T05:29:21;14.82;;;5.00;;
19161;SDS011;9713;48.140;11.530;2022-08-05T05:33:21;3.95;;;3.55;;
19161;SDS011;9713;48.140;11.530;2022-08-05T05:37:05;7.72;;;4.05;;
19161;SDS011;9713;48.140;11.530;2022-08-05T05:40:48;7.88;;;3.70;;
19161;SDS011;9713;48.140;11.530;2022-08-05T05:44:32;8.10;;;3.70;;
19161;SDS011;9713;48.140;11.530;2022-08-05T05:48:18;7.38;;;3.45;;
19161;SDS011;9713;48.140;11.530;2022-08-05T05:52:09;8.23;;;3.63;;
19161;SDS011;9713;48.140;11.530;2022-08-05T05:56:11;5.90;;;3.60;;
19161;SDS011;9713;48.140;11.530;2022-08-05T06:00:07;6.05;;;3.55;;
19161;SDS011;9713;48.140;11.530;2022-08-05T06:03:51;4.55;;;3.45;;
19161;SDS011;9713;48.140;11.530;2022-08-05T06:07:45;3.75;;;3.38;;
19161;SDS011;9713;48.140;11.530;2022-08-05T06:11:42;16.35;;;3.60;;
19161;SDS011;9713;48.140;11.530;2022-08-05T06:15:40;3.90;;;3.03;;
19161;SDS011;9713;48.140;11.530;2022-08-05T06:19:43;5.50;;;3.78;;
19161;SDS011;9713;48.140;11.530;2022-08-05T06:23:38;6.95;;;3.20;;
19161;SDS011;9713;48.140;11.530;2022-08-05T06:27:24;4.18;;;3.47;;
19161;SDS011;9713;48.140;11.530;2022-08-05T06:31:27;4.70;;;3.13;;
19161;SDS011;9713;48.140;11.530;2022-08-05T06:35:13;8.25;;;3.30;;
19161;SDS011;9713;48.140;11.530;2022-08-05T06:39:17;10.68;;;3.67;;
19161;SDS011;9713;48.140;11.530;2022-08-05T06:43:02;7.60;;;3.33;;
19161;SDS011;9713;48.140;11.530;2022-08-05T06:46:44;6.50;;;3.40;;
19161;SDS011;9713;48.140;11.530;2022-08-05T06:50:31;3.42;;;3.10;;
19161;SDS011;9713;48.140;11.530;2022-08-05T06:54:13;3.60;;;3.22;;
19161;SDS011;9713;48.140;11.530;2022-08-05T06:58:00;3.92;;;3.45;;
19161;SDS011;9713;48.140;11.530;2022-08-05T07:02:03;6.07;;;3.30;;
19161;SDS011;9713;48.140;11.530;2022-08-05T07:05:46;5.70;;;3.35;;
19161;SDS011;9713;48.140;11.530;2022-08-05T07:09:29;3.17;;;2.88;;
19161;SDS011;9713;48.140;11.530;2022-08-05T07:13:22;8.77;;;3.70;;
19161;SDS011;9713;48.140;11.530;2022-08-05T07:17:40;7.18;;;3.60;;
19161;SDS011;9713;48.140;11.530;2022-08-05T07:21:43;3.92;;;3.10;;
19161;SDS011;9713;48.140;11.530;2022-08-05T07:25:40;4.43;;;3.35;;
19161;SDS011;9713;48.140;11.530;2022-08-05T07:29:38;7.68;;;3.67;;
19161;SDS011;9713;48.140;11.530;2022-08-05T07:33:41;7.55;;;3.60;;
19161;SDS011;9713;48.140;11.530;2022-08-05T07:37:24;4.72;;;3.58;;
19161;SDS011;9713;48.140;11.530;2022-08-05T07:41:18;5.75;;;3.10;;
19161;SDS011;9713;48.140;11.530;2022-08-05T07:45:24;7.03;;;3.40;;
19161;SDS011;9713;48.140;11.530;2022-08-05T07:49:26;5.70;;;3.75;;
19161;SDS011;9713;48.140;11.530;2022-08-05T07:53:10;4.10;;;3.70;;
19161;SDS011;9713;48.140;11.530;2022-08-05T07:56:53;5.68;;;3.65;;
19161;SDS011;9713;48.140;11.530;2022-08-05T08:00:56;6.28;;;3.80;;
19161;SDS011;9713;48.140;11.530;2022-08-05T08:04:39;7.20;;;3.90;;
19161;SDS011;9713;48.140;11.530;2022-08-05T08:08:25;6.80;;;3.70;;
19161;SDS011;9713;48.140;11.530;2022-08-05T08:12:08;5.38;;;3.80;;
19161;SDS011;9713;48.140;11.530;2022-08-05T08:16:13;6.10;;;4.05;;
19161;SDS011;9713;48.140;11.530;2022-08-05T08:20:16;5.75;;;3.95;;
19161;SDS011;9713;48.140;11.530;2022-08-05T08:24:18;6.65;;;4.05;;
19161;SDS011;9713;48.140;11.530;2022-08-05T08:28:21;6.15;;;4.47;;
19161;SDS011;9713;48.140;11.530;2022-08-05T08:32:19;6.15;;;4.43;;
19161;SDS011;9713;48.140;11.530;2022-08-05T08:36:08;8.48;;;4.60;;
19161;SDS011;9713;48.140;11.530;2022-08-05T08:40:11;6.80;;;4.65;;
19161;SDS011;9713;48.140;11.530;2022-08-05T08:43:55;6.88;;;4.43;;
19161;SDS011;9713;48.140;11.530;2022-08-05T08:48:00;6.97;;;4.53;;
19161;SDS011;9713;48.140;11.530;2022-08-05T08:52:07;10.43;;;4.43;;
19161;SDS011;9713;48.140;11.530;2022-08-05T08:55:54;6.07;;;4.25;;
19161;SDS011;9713;48.140;11.530;2022-08-05T08:59:45;9.18;;;4.80;;
19161;SDS011;9713;48.140;11.530;2022-08-05T09:03:30;9.95;;;4.30;;
19161;SDS011;9713;48.140;11.530;2022-08-05T09:07:25;7.00;;;4.30;;
19161;SDS011;9713;48.140;11.530;2022-08-05T09:11:09;10.82;;;4.68;;
19161;SDS011;9713;48.140;11.530;2022-08-05T09:14:54;9.88;;;4.40;;
19161;SDS011;9713;48.140;11.530;2022-08-05T09:18:48;12.05;;;4.32;;
19161;SDS011;9713;48.140;11.530;2022-08-05T09:26:50;8.48;;;4.45;;
19161;SDS011;9713;48.140;11.530;2022-08-05T09:30:33;8.27;;;4.22;;
19161;SDS011;9713;48.140;11.530;2022-08-05T09:34:20;12.88;;;4.70;;
19161;SDS011;9713;48.140;11.530;2022-08-05T09:38:06;7.45;;;4.07;;
19161;SDS011;9713;48.140;11.530;2022-08-05T09:41:58;6.38;;;3.80;;
19161;SDS011;9713;48.140;11.530;2022-08-05T09:45:43;7.43;;;3.85;;
19161;SDS011;9713;48.140;11.530;2022-08-05T09:49:48;9.35;;;3.78;;
19161;SDS011;9713;48.140;11.530;2022-08-05T09:53:46;5.88;;;3.78;;
19161;SDS011;9713;48.140;11.530;2022-08-05T09:57:36;6.93;;;3.88;;
19161;SDS011;9713;48.140;11.530;2022-08-05T10:01:23;10.43;;;3.97;;
19161;SDS011;9713;48.140;11.530;2022-08-05T10:05:14;6.78;;;4.20;;
19161;SDS011;9713;48.140;11.530;2022-08-05T10:09:10;7.80;;;4.15;;
19161;SDS011;9713;48.140;11.530;2022-08-05T10:13:08;7.57;;;3.92;;
19161;SDS011;9713;48.140;11.530;2022-08-05T10:16:55;10.60;;;4.38;;
19161;SDS011;9713;48.140;11.530;2022-08-05T10:20:43;7.78;;;4.00;;
19161;SDS011;9713;48.140;11.530;2022-08-05T10:24:29;4.85;;;3.90;;
19161;SDS011;9713;48.140;11.530;2022-08-05T10:28:19;7.18;;;3.70;;
19161;SDS011;9713;48.140;11.530;2022-08-05T10:32:10;8.27;;;3.58;;
19161;SDS011;9713;48.140;11.530;2022-08-05T10:36:15;8.77;;;3.50;;
19161;SDS011;9713;48.140;11.530;2022-08-05T10:40:04;8.85;;;3.60;;
19161;SDS011;9713;48.140;11.530;2022-08-05T10:44:00;8.85;;;3.78;;
19161;SDS011;9713;48.140;11.530;2022-08-05T10:47:47;4.47;;;3.47;;
19161;SDS011;9713;48.140;11.530;2022-08-05T10:51:52;6.07;;;3.45;;
19161;SDS011;9713;48.140;11.530;2022-08-05T10:55:41;7.10;;;3.88;;
19161;SDS011;9713;48.140;11.530;2022-08-05T11:00:09;8.07;;;3.75;;
19161;SDS011;9713;48.140;11.530;2022-08-05T11:04:04;4.55;;;3.20;;
19161;SDS011;9713;48.140;11.530;2022-08-05T11:07:59;5.97;;;3.30;;
19161;SDS011;9713;48.140;11.530;2022-08-05T11:12:03;11.10;;;3.22;;
19161;SDS011;9713;48.140;11.530;2022-08-05T11:15:49;7.25;;;3.60;;
19161;SDS011;9713;48.140;11.530;2022-08-05T11:20:31;7.90;;;3.60;;
19161;SDS011;9713;48.140;11.530;2022-08-05T11:24:21;4.90;;;3.42;;
19161;SDS011;9713;48.140;11.530;2022-08-05T11:32:23;7.82;;;3.20;;
19161;SDS011;9713;48.140;11.530;2022-08-05T11:36:08;6.55;;;3.50;;
19161;SDS011;9713;48.140;11.530;2022-08-05T11:39:53;4.50;;;3.10;;
19161;SDS011;9713;48.140;11.530;2022-08-05T11:43:44;7.40;;;3.10;;
19161;SDS011;9713;48.140;11.530;2022-08-05T11:47:47;4.63;;;2.97;;
19161;SDS011;9713;48.140;11.530;2022-08-05T11:51:35;5.85;;;2.97;;
19161;SDS011;9713;48.140;11.530;2022-08-05T11:55:30;7.85;;;3.28;;
19161;SDS011;9713;48.140;11.530;2022-08-05T11:59:17;5.13;;;2.85;;
19161;SDS011;9713;48.140;11.530;2022-08-05T12:03:13;4.38;;;2.80;;
19161;SDS011;9713;48.140;11.530;2022-08-05T12:07:10;3.45;;;2.90;;
19161;SDS011;9713;48.140;11.530;2022-08-05T12:10:56;4.95;;;3.40;;
19161;SDS011;9713;48.140;11.530;2022-08-05T12:14:45;6.00;;;2.80;;
19161;SDS011;9713;48.140;11.530;2022-08-05T12:18:31;5.70;;;2.88;;
19161;SDS011;9713;48.140;11.530;2022-08-05T12:22:19;3.72;;;2.80;;
19161;SDS011;9713;48.140;11.530;2022-08-05T12:26:05;4.93;;;3.15;;
19161;SDS011;9713;48.140;11.530;2022-08-05T12:29:58;7.10;;;3.40;;
19161;SDS011;9713;48.140;11.530;2022-08-05T12:33:43;7.55;;;3.63;;
19161;SDS011;9713;48.140;11.530;2022-08-05T12:37:26;6.30;;;3.10;;
19161;SDS011;9713;48.140;11.530;2022-08-05T12:41:12;4.43;;;2.70;;
19161;SDS011;9713;48.140;11.530;2022-08-05T12:45:01;5.68;;;3.00;;
19161;SDS011;9713;48.140;11.530;2022-08-05T12:48:56;11.23;;;2.95;;
19161;SDS011;9713;48.140;11.530;2022-08-05T12:52:53;8.52;;;2.90;;
19161;SDS011;9713;48.140;11.530;2022-08-05T12:56:41;5.35;;;2.97;;
19161;SDS011;9713;48.140;11.530;2022-08-05T13:00:26;10.13;;;3.00;;
19161;SDS011;9713;48.140;11.530;2022-08-05T13:04:30;7.47;;;2.95;;
19161;SDS011;9713;48.140;11.530;2022-08-05T13:08:22;9.23;;;3.38;;
19161;SDS011;9713;48.140;11.530;2022-08-05T13:12:10;3.47;;;3.15;;
19161;SDS011;9713;48.140;11.530;2022-08-05T13:15:57;4.18;;;2.70;;
19161;SDS011;9713;48.140;11.530;2022-08-05T13:19:41;6.93;;;3.28;;
19161;SDS011;9713;48.140;11.530;2022-08-05T13:23:33;7.18;;;2.80;;
19161;SDS011;9713;48.140;11.530;2022-08-05T13:27:32;5.88;;;3.40;;
19161;SDS011;9713;48.140;11.530;2022-08-05T13:31:19;7.03;;;3.42;;
19161;SDS011;9713;48.140;11.530;2022-08-05T13:35:21;3.63;;;2.97;;
19161;SDS011;9713;48.140;11.530;2022-08-05T13:39:24;6.60;;;3.20;;
19161;SDS011;9713;48.140;11.530;2022-08-05T13:43:28;6.03;;;2.97;;
19161;SDS011;9713;48.140;11.530;2022-08-05T13:47:31;4.13;;;2.95;;
19161;SDS011;9713;48.140;11.530;2022-08-05T13:51:34;5.72;;;2.90;;
19161;SDS011;9713;48.140;11.530;2022-08-05T13:55:25;6.70;;;3.08;;
19161;SDS011;9713;48.140;11.530;2022-08-05T13:59:24;4.80;;;2.67;;
19161;SDS011;9713;48.140;11.530;2022-08-05T14:03:07;4.60;;;2.95;;
19161;SDS011;9713;48.140;11.530;2022-08-05T14:06:51;5.82;;;2.70;;
19161;SDS011;9713;48.140;11.530;2022-08-05T14:10:53;5.85;;;2.63;;
19161;SDS011;9713;48.140;11.530;2022-08-05T14:14:49;2.88;;;2.55;;
19161;SDS011;9713;48.140;11.530;2022-08-05T14:18:33;5.65;;;3.50;;
19161;SDS011;9713;48.140;11.530;2022-08-05T14:22:18;9.98;;;3.20;;
19161;SDS011;9713;48.140;11.530;2022-08-05T14:26:02;5.60;;;2.90;;
19161;SDS011;9713;48.140;11.530;2022-08-05T14:29:46;6.63;;;3.20;;
19161;SDS011;9713;48.140;11.530;2022-08-05T14:33:33;6.00;;;3.00;;
19161;SDS011;9713;48.140;11.530;2022-08-05T14:37:37;5.47;;;2.63;;
19161;SDS011;9713;48.140;11.530;2022-08-05T14:41:30;3.33;;;2.65;;
19161;SDS011;9713;48.140;11.530;2022-08-05T14:45:12;6.40;;;3.20;;
19161;SDS011;9713;48.140;11.530;2022-08-05T14:48:57;16.55;;;9.70;;
19161;SDS011;9713;48.140;11.530;2022-08-05T14:52:47;7.63;;;2.50;;
19161;SDS011;9713;48.140;11.530;2022-08-05T14:56:37;6.07;;;2.97;;
19161;SDS011;9713;48.140;11.530;2022-08-05T15:00:26;5.97;;;2.97;;
19161;SDS011;9713;48.140;11.530;2022-08-05T15:04:11;4.55;;;2.83;;
19161;SDS011;9713;48.140;11.530;2022-08-05T15:07:53;5.20;;;3.00;;
19161;SDS011;9713;48.140;11.530;2022-08-05T15:11:52;3.42;;;2.80;;
19161;SDS011;9713;48.140;11.530;2022-08-05T15:15:35;10.82;;;3.00;;
19161;SDS011;9713;48.140;11.530;2022-08-05T15:19:37;7.65;;;2.88;;
19161;SDS011;9713;48.140;11.530;2022-08-05T15:23:29;4.70;;;3.10;;
19161;SDS011;9713;48.140;11.530;2022-08-05T15:27:13;5.55;;;2.55;;
19161;SDS011;9713;48.140;11.530;2022-08-05T15:31:00;4.53;;;2.83;;
19161;SDS011;9713;48.140;11.530;2022-08-05T15:34:47;6.80;;;2.70;;
19161;SDS011;9713;48.140;11.530;2022-08-05T15:38:30;5.03;;;2.55;;
19161;SDS011;9713;48.140;11.530;2022-08-05T15:42:21;4.20;;;2.70;;
19161;SDS011;9713;48.140;11.530;2022-08-05T15:46:24;4.28;;;2.90;;
19161;SDS011;9713;48.140;11.530;2022-08-05T15:50:09;3.65;;;2.17;;
19161;SDS011;9713;48.140;11.530;2022-08-05T15:53:56;3.45;;;2.45;;
19161;SDS011;9713;48.140;11.530;2022-08-05T15:57:39;2.88;;;2.45;;
19161;SDS011;9713;48.140;11.530;2022-08-05T16:01:25;4.60;;;3.22;;
19161;SDS011;9713;48.140;11.530;2022-08-05T16:05:21;7.50;;;2.40;;
19161;SDS011;9713;48.140;11.530;2022-08-05T16:09:08;5.30;;;2.28;;
19161;SDS011;9713;48.140;11.530;2022-08-05T16:12:54;7.57;;;2.60;;
19161;SDS011;9713;48.140;11.530;2022-08-05T16:16:37;3.55;;;2.42;;
19161;SDS011;9713;48.140;11.530;2022-08-05T16:20:21;8.02;;;2.63;;
19161;SDS011;9713;48.140;11.530;2022-08-05T16:24:04;5.60;;;2.63;;
19161;SDS011;9713;48.140;11.530;2022-08-05T16:28:07;4.93;;;2.67;;
19161;SDS011;9713;48.140;11.530;2022-08-05T16:31:51;7.10;;;3.28;;
19161;SDS011;9713;48.140;11.530;2022-08-05T16:35:39;5.70;;;3.40;;
19161;SDS011;9713;48.140;11.530;2022-08-05T16:39:24;6.22;;;3.15;;
19161;SDS011;9713;48.140;11.530;2022-08-05T16:43:28;4.28;;;3.00;;
19161;SDS011;9713;48.140;11.530;2022-08-05T16:47:12;6.25;;;3.00;;
19161;SDS011;9713;48.140;11.530;2022-08-05T16:51:16;5.07;;;3.22;;
19161;SDS011;9713;48.140;11.530;2022-08-05T16:55:00;3.85;;;3.03;;
19161;SDS011;9713;48.140;11.530;2022-08-05T16:58:44;5.70;;;2.97;;
19161;SDS011;9713;48.140;11.530;2022-08-05T17:02:27;4.65;;;3.47;;
19161;SDS011;9713;48.140;11.530;2022-08-05T17:06:10;4.00;;;2.90;;
19161;SDS011;9713;48.140;11.530;2022-08-05T17:09:58;5.53;;;3.40;;
19161;SDS011;9713;48.140;11.530;2022-08-05T17:13:43;6.45;;;3.08;;
19161;SDS011;9713;48.140;11.530;2022-08-05T17:17:26;7.40;;;3.60;;
19161;SDS011;9713;48.140;11.530;2022-08-05T17:21:33;5.18;;;3.10;;
19161;SDS011;9713;48.140;11.530;2022-08-05T17:25:18;5.20;;;2.88;;
19161;SDS011;9713;48.140;11.530;2022-08-05T17:29:19;7.38;;;3.30;;
19161;SDS011;9713;48.140;11.530;2022-08-05T17:33:20;11.48;;;3.45;;
19161;SDS011;9713;48.140;11.530;2022-08-05T17:37:03;5.13;;;3.05;;
19161;SDS011;9713;48.140;11.530;2022-08-05T17:41:08;4.38;;;3.25;;
19161;SDS011;9713;48.140;11.530;2022-08-05T17:45:11;5.45;;;3.35;;
19161;SDS011;9713;48.140;11.530;2022-08-05T17:49:01;5.68;;;3.20;;
19161;SDS011;9713;48.140;11.530;2022-08-05T17:52:44;3.53;;;3.15;;
19161;SDS011;9713;48.140;11.530;2022-08-05T17:56:36;7.07;;;3.40;;
19161;SDS011;9713;48.140;11.530;2022-08-05T18:00:19;5.15;;;3.55;;
19161;SDS011;9713;48.140;11.530;2022-08-05T18:04:10;7.20;;;3.47;;
19161;SDS011;9713;48.140;11.530;2022-08-05T18:08:01;3.92;;;3.53;;
19161;SDS011;9713;48.140;11.530;2022-08-05T18:11:45;5.35;;;3.40;;
19161;SDS011;9713;48.140;11.530;2022-08-05T18:15:32;5.55;;;3.70;;
19161;SDS011;9713;48.140;11.530;2022-08-05T18:19:19;5.28;;;4.07;;
19161;SDS011;9713;48.140;11.530;2022-08-05T18:23:06;5.32;;;3.80;;
19161;SDS011;9713;48.140;11.530;2022-08-05T18:26:53;7.93;;;3.90;;
19161;SDS011;9713;48.140;11.530;2022-08-05T18:30:38;6.75;;;4.13;;
19161;SDS011;9713;48.140;11.530;2022-08-05T18:34:21;11.90;;;3.95;;
19161;SDS011;9713;48.140;11.530;2022-08-05T18:38:21;4.68;;;3.67;;
19161;SDS011;9713;48.140;11.530;2022-08-05T18:42:08;6.05;;;3.80;;
19161;SDS011;9713;48.140;11.530;2022-08-05T18:45:51;5.53;;;4.10;;
19161;SDS011;9713;48.140;11.530;2022-08-05T18:49:36;8.90;;;3.90;;
19161;SDS011;9713;48.140;11.530;2022-08-05T18:53:40;7.22;;;5.40;;
19161;SDS011;9713;48.140;11.530;2022-08-05T18:57:32;5.97;;;4.22;;
19161;SDS011;9713;48.140;11.530;2022-08-05T19:01:33;8.80;;;4.28;;
19161;SDS011;9713;48.140;11.530;2022-08-05T19:05:35;6.20;;;4.18;;
19161;SDS011;9713;48.140;11.530;2022-08-05T19:09:38;6.03;;;4.07;;
19161;SDS011;9713;48.140;11.530;2022-08-05T19:13:23;9.02;;;3.92;;
19161;SDS011;9713;48.140;11.530;2022-08-05T19:17:09;6.25;;;3.58;;
19161;SDS011;9713;48.140;11.530;2022-08-05T19:20:53;9.40;;;3.67;;
19161;SDS011;9713;48.140;11.530;2022-08-05T19:24:36;5.07;;;3.60;;
19161;SDS011;9713;48.140;11.530;2022-08-05T19:28:37;7.85;;;3.45;;
19161;SDS011;9713;48.140;11.530;2022-08-05T19:32:22;5.90;;;3.88;;
19161;SDS011;9713;48.140;11.530;2022-08-05T19:36:08;7.50;;;4.80;;
19161;SDS011;9713;48.140;11.530;2022-08-05T19:39:55;7.47;;;3.88;;
19161;SDS011;9713;48.140;11.530;2022-08-05T19:43:39;7.75;;;4.65;;
19161;SDS011;9713;48.140;11.530;2022-08-05T19:47:43;9.88;;;5.43;;
19161;SDS011;9713;48.140;11.530;2022-08-05T19:51:26;9.73;;;4.80;;
19161;SDS011;9713;48.140;11.530;2022-08-05T19:55:29;8.05;;;5.45;;
19161;SDS011;9713;48.140;11.530;2022-08-05T19:59:33;6.65;;;4.85;;
19161;SDS011;9713;48.140;11.530;2022-08-05T20:03:36;10.32;;;5.75;;
19161;SDS011;9713;48.140;11.530;2022-08-05T20:07:22;7.45;;;5.05;;
19161;SDS011;9713;48.140;11.530;2022-08-05T20:11:25;7.75;;;5.32;;
19161;SDS011;9713;48.140;11.530;2022-08-05T20:15:09;7.30;;;5.25;;
19161;SDS011;9713;48.140;11.530;2022-08-05T20:18:53;7.25;;;5.32;;
19161;SDS011;9713;48.140;11.530;2022-08-05T20:22:41;7.63;;;5.38;;
19161;SDS011;9713;48.140;11.530;2022-08-05T20:26:27;6.28;;;5.25;;
19161;SDS011;9713;48.140;11.530;2022-08-05T20:30:11;6.38;;;5.07;;
19161;SDS011;9713;48.140;11.530;2022-08-05T20:33:58;7.72;;;5.72;;
19161;SDS011;9713;48.140;11.530;2022-08-05T20:37:41;6.93;;;5.68;;
19161;SDS011;9713;48.140;11.530;2022-08-05T20:41:44;7.07;;;5.93;;
19161;SDS011;9713;48.140;11.530;2022-08-05T20:45:29;8.43;;;6.50;;
19161;SDS011;9713;48.140;11.530;2022-08-05T20:49:32;8.13;;;5.55;;
19161;SDS011;9713;48.140;11.530;2022-08-05T20:53:20;7.65;;;5.78;;
19161;SDS011;9713;48.140;11.530;2022-08-05T20:57:17;4.93;;;4.30;;
19161;SDS011;9713;48.140;11.530;2022-08-05T21:01:21;5.40;;;3.97;;
19161;SDS011;9713;48.140;11.530;2022-08-05T21:05:18;6.95;;;4.18;;
19161;SDS011;9713;48.140;11.530;2022-08-05T21:09:03;6.00;;;4.70;;
19161;SDS011;9713;48.140;11.530;2022-08-05T21:12:47;6.30;;;4.75;;
19161;SDS011;9713;48.140;11.530;2022-08-05T21:16:50;5.65;;;4.63;;
19161;SDS011;9713;48.140;11.530;2022-08-05T21:20:33;7.63;;;4.55;;
19161;SDS011;9713;48.140;11.530;2022-08-05T21:24:16;6.75;;;4.60;;
19161;SDS011;9713;48.140;11.530;2022-08-05T21:28:00;5.38;;;4.45;;
19161;SDS011;9713;48.140;11.530;2022-08-05T21:31:43;6.18;;;4.40;;
19161;SDS011;9713;48.140;11.530;2022-08-05T21:35:30;5.85;;;4.50;;
19161;SDS011;9713;48.140;11.530;2022-08-05T21:39:32;8.95;;;3.70;;
19161;SDS011;9713;48.140;11.530;2022-08-05T21:43:20;6.18;;;3.10;;
19161;SDS011;9713;48.140;11.530;2022-08-05T21:47:05;5.22;;;3.88;;
19161;SDS011;9713;48.140;11.530;2022-08-05T21:51:09;7.00;;;4.28;;
19161;SDS011;9713;48.140;11.530;2022-08-05T21:55:12;9.30;;;6.30;;
19161;SDS011;9713;48.140;11.530;2022-08-05T21:58:55;5.28;;;3.40;;
19161;SDS011;9713;48.140;11.530;2022-08-05T22:02:38;7.05;;;3.70;;
19161;SDS011;9713;48.140;11.530;2022-08-05T22:06:24;4.43;;;3.38;;
19161;SDS011;9713;48.140;11.530;2022-08-05T22:10:17;6.32;;;3.25;;
19161;SDS011;9713;48.140;11.530;2022-08-05T22:14:07;3.88;;;3.17;;
19161;SDS011;9713;48.140;11.530;2022-08-05T22:18:12;4.97;;;3.63;;
19161;SDS011;9713;48.140;11.530;2022-08-05T22:22:01;6.07;;;4.25;;
19161;SDS011;9713;48.140;11.530;2022-08-05T22:25:44;9.18;;;4.13;;
19161;SDS011;9713;48.140;11.530;2022-08-05T22:29:51;6.40;;;4.72;;
19161;SDS011;9713;48.140;11.530;2022-08-05T22:33:34;6.40;;;4.45;;
19161;SDS011;9713;48.140;11.530;2022-08-05T22:37:38;6.47;;;4.90;;
19161;SDS011;9713;48.140;11.530;2022-08-05T22:41:39;6.28;;;4.55;;
19161;SDS011;9713;48.140;11.530;2022-08-05T22:45:43;5.10;;;4.60;;
19161;SDS011;9713;48.140;11.530;2022-08-05T22:49:26;6.30;;;4.90;;
19161;SDS011;9713;48.140;11.530;2022-08-05T22:53:30;5.88;;;4.13;;
19161;SDS011;9713;48.140;11.530;2022-08-05T22:57:16;5.80;;;4.57;;
19161;SDS011;9713;48.140;11.530;2022-08-05T23:00:59;6.07;;;4.68;;
19161;SDS011;9713;48.140;11.530;2022-08-05T23:04:41;6.63;;;4.50;;
19161;SDS011;9713;48.140;11.530;2022-08-05T23:08:36;5.80;;;4.20;;
19161;SDS011;9713;48.140;11.530;2022-08-05T23:12:20;8.57;;;4.78;;
19161;SDS011;9713;48.140;11.530;2022-08-05T23:16:04;4.75;;;4.07;;
19161;SDS011;9713;48.140;11.530;2022-08-05T23:19:48;5.40;;;3.58;;
19161;SDS011;9713;48.140;11.530;2022-08-05T23:23:37;4.97;;;3.35;;
19161;SDS011;9713;48.140;11.530;2022-08-05T23:27:20;6.63;;;3.50;;